Nashville, Tennessee
Traffic Map
Current Weather Conditions
Nashville, Tennessee
Scattered Clouds
Scattered Clouds
83°
Feels Like: 83°
Wind Chill: 83° Ceiling: Unl
Heat Index: 83° Visibility: 10mi
Dew Point: 61° Wind: 8mph
Humidity: 47% Direction: 360° (N)
Pressure: 30.02in Gusts: 0mph
Raw Report DataKBNA 010053Z 36007KT 10SM FEW075 SCT210 28/16 A3002 RMK AO2 SLP156 T02830161
Traffic Incident Summary
Active as of:
Severity:
Category:
InformationThere was an issue retrieving the traffic information for this location. Please try a different location or try again shortly.
Advertisements
Track Severe Weather on mobile